sensor_id;sensor_type;location;lat;lon;timestamp;temperature;humidity
2409;DHT22;8463;48.094;7.970;2023-08-07T00:00:50;12.50;1.00
2409;DHT22;8463;48.094;7.970;2023-08-07T00:03:15;12.50;1.00
2409;DHT22;8463;48.094;7.970;2023-08-07T00:05:50;12.60;1.00
2409;DHT22;8463;48.094;7.970;2023-08-07T00:08:17;12.60;1.00
2409;DHT22;8463;48.094;7.970;2023-08-07T00:10:43;12.60;1.00
2409;DHT22;8463;48.094;7.970;2023-08-07T00:13:08;12.60;1.00
2409;DHT22;8463;48.094;7.970;2023-08-07T00:15:34;12.50;1.00
2409;DHT22;8463;48.094;7.970;2023-08-07T00:18:02;12.50;1.00
2409;DHT22;8463;48.094;7.970;2023-08-07T00:20:28;12.50;1.00
2409;DHT22;8463;48.094;7.970;2023-08-07T00:22:53;12.60;1.00
2409;DHT22;8463;48.094;7.970;2023-08-07T00:25:19;12.60;1.00
2409;DHT22;8463;48.094;7.970;2023-08-07T00:27:45;12.60;1.00
2409;DHT22;8463;48.094;7.970;2023-08-07T00:30:11;12.60;1.00
2409;DHT22;8463;48.094;7.970;2023-08-07T00:32:37;12.50;1.00
2409;DHT22;8463;48.094;7.970;2023-08-07T00:35:03;12.50;1.00
2409;DHT22;8463;48.094;7.970;2023-08-07T00:37:30;12.50;1.00
2409;DHT22;8463;48.094;7.970;2023-08-07T00:39:55;12.30;1.00
2409;DHT22;8463;48.094;7.970;2023-08-07T00:42:21;12.30;1.00
2409;DHT22;8463;48.094;7.970;2023-08-07T00:44:49;12.30;1.00
2409;DHT22;8463;48.094;7.970;2023-08-07T00:47:14;12.20;1.00
2409;DHT22;8463;48.094;7.970;2023-08-07T00:49:40;12.20;1.00
2409;DHT22;8463;48.094;7.970;2023-08-07T00:52:09;12.10;1.00
2409;DHT22;8463;48.094;7.970;2023-08-07T00:54:35;12.20;1.00
2409;DHT22;8463;48.094;7.970;2023-08-07T00:57:10;12.30;1.00
2409;DHT22;8463;48.094;7.970;2023-08-07T00:59:36;12.30;1.00
2409;DHT22;8463;48.094;7.970;2023-08-07T01:02:02;12.30;1.00
2409;DHT22;8463;48.094;7.970;2023-08-07T01:04:28;12.30;1.00
2409;DHT22;8463;48.094;7.970;2023-08-07T01:06:54;12.40;1.00
2409;DHT22;8463;48.094;7.970;2023-08-07T01:09:19;12.30;1.00
2409;DHT22;8463;48.094;7.970;2023-08-07T01:12:07;12.30;1.00
2409;DHT22;8463;48.094;7.970;2023-08-07T01:14:53;12.40;1.00
2409;DHT22;8463;48.094;7.970;2023-08-07T01:17:22;12.50;1.00
2409;DHT22;8463;48.094;7.970;2023-08-07T01:19:50;12.60;1.00
2409;DHT22;8463;48.094;7.970;2023-08-07T01:22:18;12.60;1.00
2409;DHT22;8463;48.094;7.970;2023-08-07T01:24:45;12.70;1.00
2409;DHT22;8463;48.094;7.970;2023-08-07T01:35:40;12.80;1.00
2409;DHT22;8463;48.094;7.970;2023-08-07T01:38:07;12.70;1.00
2409;DHT22;8463;48.094;7.970;2023-08-07T01:40:37;12.60;1.00
2409;DHT22;8463;48.094;7.970;2023-08-07T01:43:04;12.50;1.00
2409;DHT22;8463;48.094;7.970;2023-08-07T01:45:33;12.40;1.00
2409;DHT22;8463;48.094;7.970;2023-08-07T01:47:59;12.20;1.00
2409;DHT22;8463;48.094;7.970;2023-08-07T01:50:25;12.10;1.00
2409;DHT22;8463;48.094;7.970;2023-08-07T01:52:50;12.10;1.00
2409;DHT22;8463;48.094;7.970;2023-08-07T01:55:17;12.10;1.00
2409;DHT22;8463;48.094;7.970;2023-08-07T01:57:45;12.20;1.00
2409;DHT22;8463;48.094;7.970;2023-08-07T02:00:11;12.20;1.00
2409;DHT22;8463;48.094;7.970;2023-08-07T02:02:37;12.20;1.00
2409;DHT22;8463;48.094;7.970;2023-08-07T02:05:04;12.10;1.00
2409;DHT22;8463;48.094;7.970;2023-08-07T02:07:30;12.10;1.00
2409;DHT22;8463;48.094;7.970;2023-08-07T02:09:56;12.20;1.00
2409;DHT22;8463;48.094;7.970;2023-08-07T02:12:22;12.30;1.00
2409;DHT22;8463;48.094;7.970;2023-08-07T02:14:48;12.30;1.00
2409;DHT22;8463;48.094;7.970;2023-08-07T02:17:13;12.10;1.00
2409;DHT22;8463;48.094;7.970;2023-08-07T02:19:39;12.10;1.00
2409;DHT22;8463;48.094;7.970;2023-08-07T02:22:05;12.20;1.00
2409;DHT22;8463;48.094;7.970;2023-08-07T02:24:30;12.30;1.00
2409;DHT22;8463;48.094;7.970;2023-08-07T02:26:58;12.30;1.00
2409;DHT22;8463;48.094;7.970;2023-08-07T02:29:24;12.40;1.00
2409;DHT22;8463;48.094;7.970;2023-08-07T02:31:49;12.40;1.00
2409;DHT22;8463;48.094;7.970;2023-08-07T02:34:15;12.50;1.00
2409;DHT22;8463;48.094;7.970;2023-08-07T02:36:43;12.50;1.00
2409;DHT22;8463;48.094;7.970;2023-08-07T02:39:09;12.50;1.00
2409;DHT22;8463;48.094;7.970;2023-08-07T02:41:34;12.50;1.00
2409;DHT22;8463;48.094;7.970;2023-08-07T02:44:02;12.40;1.00
2409;DHT22;8463;48.094;7.970;2023-08-07T02:46:28;12.50;1.00
2409;DHT22;8463;48.094;7.970;2023-08-07T02:48:54;12.50;1.00
2409;DHT22;8463;48.094;7.970;2023-08-07T02:51:19;12.50;1.00
2409;DHT22;8463;48.094;7.970;2023-08-07T02:53:45;12.50;1.00
2409;DHT22;8463;48.094;7.970;2023-08-07T02:56:10;12.40;1.00
2409;DHT22;8463;48.094;7.970;2023-08-07T02:58:36;12.40;1.00
2409;DHT22;8463;48.094;7.970;2023-08-07T03:01:05;12.30;1.00
2409;DHT22;8463;48.094;7.970;2023-08-07T03:03:34;12.40;1.00
2409;DHT22;8463;48.094;7.970;2023-08-07T03:05:59;12.40;1.00
2409;DHT22;8463;48.094;7.970;2023-08-07T03:08:25;12.40;1.00
2409;DHT22;8463;48.094;7.970;2023-08-07T03:10:57;12.40;1.00
2409;DHT22;8463;48.094;7.970;2023-08-07T03:13:24;12.40;1.00
2409;DHT22;8463;48.094;7.970;2023-08-07T03:15:53;12.50;1.00
2409;DHT22;8463;48.094;7.970;2023-08-07T03:18:23;12.50;1.00
2409;DHT22;8463;48.094;7.970;2023-08-07T03:20:49;12.50;1.00
2409;DHT22;8463;48.094;7.970;2023-08-07T03:23:15;12.60;1.00
2409;DHT22;8463;48.094;7.970;2023-08-07T03:25:40;12.60;1.00
2409;DHT22;8463;48.094;7.970;2023-08-07T03:28:06;12.60;1.00
2409;DHT22;8463;48.094;7.970;2023-08-07T03:30:31;12.60;1.00
2409;DHT22;8463;48.094;7.970;2023-08-07T03:32:57;12.60;1.00
2409;DHT22;8463;48.094;7.970;2023-08-07T03:35:22;12.60;1.00
2409;DHT22;8463;48.094;7.970;2023-08-07T03:37:48;12.60;1.00
2409;DHT22;8463;48.094;7.970;2023-08-07T03:40:14;12.60;1.00
2409;DHT22;8463;48.094;7.970;2023-08-07T03:42:40;12.60;1.00
2409;DHT22;8463;48.094;7.970;2023-08-07T03:45:06;12.60;1.00
2409;DHT22;8463;48.094;7.970;2023-08-07T03:47:31;12.60;1.00
2409;DHT22;8463;48.094;7.970;2023-08-07T03:49:57;12.60;1.00
2409;DHT22;8463;48.094;7.970;2023-08-07T03:52:22;12.60;1.00
2409;DHT22;8463;48.094;7.970;2023-08-07T03:54:48;12.60;1.00
2409;DHT22;8463;48.094;7.970;2023-08-07T03:57:14;12.60;1.00
2409;DHT22;8463;48.094;7.970;2023-08-07T03:59:39;12.50;1.00
2409;DHT22;8463;48.094;7.970;2023-08-07T04:02:05;12.40;1.00
2409;DHT22;8463;48.094;7.970;2023-08-07T04:04:31;12.40;1.00
2409;DHT22;8463;48.094;7.970;2023-08-07T04:06:56;12.40;1.00
2409;DHT22;8463;48.094;7.970;2023-08-07T04:09:22;12.40;1.00
2409;DHT22;8463;48.094;7.970;2023-08-07T04:11:48;12.40;1.00
2409;DHT22;8463;48.094;7.970;2023-08-07T04:14:13;12.40;1.00
2409;DHT22;8463;48.094;7.970;2023-08-07T04:16:39;12.40;1.00
2409;DHT22;8463;48.094;7.970;2023-08-07T04:19:07;12.40;1.00
2409;DHT22;8463;48.094;7.970;2023-08-07T04:21:33;12.40;1.00
2409;DHT22;8463;48.094;7.970;2023-08-07T04:23:59;12.40;1.00
2409;DHT22;8463;48.094;7.970;2023-08-07T04:26:33;12.40;1.00
2409;DHT22;8463;48.094;7.970;2023-08-07T04:28:59;12.40;1.00
2409;DHT22;8463;48.094;7.970;2023-08-07T04:31:25;12.40;1.00
2409;DHT22;8463;48.094;7.970;2023-08-07T04:33:50;12.40;1.00
2409;DHT22;8463;48.094;7.970;2023-08-07T04:36:16;12.40;1.00
2409;DHT22;8463;48.094;7.970;2023-08-07T04:38:42;12.40;1.00
2409;DHT22;8463;48.094;7.970;2023-08-07T04:41:07;12.50;1.00
2409;DHT22;8463;48.094;7.970;2023-08-07T04:43:33;12.50;1.00
2409;DHT22;8463;48.094;7.970;2023-08-07T04:46:02;12.50;1.00
2409;DHT22;8463;48.094;7.970;2023-08-07T04:48:28;12.40;1.00
2409;DHT22;8463;48.094;7.970;2023-08-07T04:50:53;12.50;1.00
2409;DHT22;8463;48.094;7.970;2023-08-07T04:53:19;12.50;1.00
2409;DHT22;8463;48.094;7.970;2023-08-07T04:55:46;12.50;1.00
2409;DHT22;8463;48.094;7.970;2023-08-07T04:58:11;12.50;1.00
2409;DHT22;8463;48.094;7.970;2023-08-07T05:00:37;12.50;1.00
2409;DHT22;8463;48.094;7.970;2023-08-07T05:03:03;12.50;1.00
2409;DHT22;8463;48.094;7.970;2023-08-07T05:05:29;12.50;1.00
2409;DHT22;8463;48.094;7.970;2023-08-07T05:07:55;12.60;1.00
2409;DHT22;8463;48.094;7.970;2023-08-07T05:10:21;12.50;1.00
2409;DHT22;8463;48.094;7.970;2023-08-07T05:12:47;12.60;1.00
2409;DHT22;8463;48.094;7.970;2023-08-07T05:15:16;12.60;1.00
2409;DHT22;8463;48.094;7.970;2023-08-07T05:17:41;12.60;1.00
2409;DHT22;8463;48.094;7.970;2023-08-07T05:20:07;12.60;1.00
2409;DHT22;8463;48.094;7.970;2023-08-07T05:22:34;12.70;1.00
2409;DHT22;8463;48.094;7.970;2023-08-07T05:24:59;12.70;1.00
2409;DHT22;8463;48.094;7.970;2023-08-07T05:27:25;12.70;1.00
2409;DHT22;8463;48.094;7.970;2023-08-07T05:29:50;12.70;1.00
2409;DHT22;8463;48.094;7.970;2023-08-07T05:32:16;12.70;1.00
2409;DHT22;8463;48.094;7.970;2023-08-07T05:34:42;12.60;1.00
2409;DHT22;8463;48.094;7.970;2023-08-07T05:37:08;12.50;1.00
2409;DHT22;8463;48.094;7.970;2023-08-07T05:39:35;12.50;1.00
2409;DHT22;8463;48.094;7.970;2023-08-07T05:42:03;12.50;1.00
2409;DHT22;8463;48.094;7.970;2023-08-07T05:44:29;12.50;1.00
2409;DHT22;8463;48.094;7.970;2023-08-07T05:46:55;12.50;1.00
2409;DHT22;8463;48.094;7.970;2023-08-07T05:49:21;12.60;1.00
2409;DHT22;8463;48.094;7.970;2023-08-07T05:51:47;12.60;1.00
2409;DHT22;8463;48.094;7.970;2023-08-07T05:54:12;12.70;1.00
2409;DHT22;8463;48.094;7.970;2023-08-07T05:56:38;12.70;1.00
2409;DHT22;8463;48.094;7.970;2023-08-07T05:59:04;12.70;1.00
2409;DHT22;8463;48.094;7.970;2023-08-07T06:01:29;12.80;1.00
2409;DHT22;8463;48.094;7.970;2023-08-07T06:03:58;12.80;1.00
2409;DHT22;8463;48.094;7.970;2023-08-07T06:06:27;12.90;1.00
2409;DHT22;8463;48.094;7.970;2023-08-07T06:08:55;12.90;1.00
2409;DHT22;8463;48.094;7.970;2023-08-07T06:11:21;12.90;1.00
2409;DHT22;8463;48.094;7.970;2023-08-07T06:13:48;13.00;1.00
2409;DHT22;8463;48.094;7.970;2023-08-07T06:16:13;12.80;1.00
2409;DHT22;8463;48.094;7.970;2023-08-07T06:18:39;12.70;1.00
2409;DHT22;8463;48.094;7.970;2023-08-07T06:21:07;12.70;1.00
2409;DHT22;8463;48.094;7.970;2023-08-07T06:23:36;12.60;1.00
2409;DHT22;8463;48.094;7.970;2023-08-07T06:26:02;12.70;1.00
2409;DHT22;8463;48.094;7.970;2023-08-07T06:28:33;12.80;1.00
2409;DHT22;8463;48.094;7.970;2023-08-07T06:31:07;13.00;1.00
2409;DHT22;8463;48.094;7.970;2023-08-07T06:33:33;13.00;1.00
2409;DHT22;8463;48.094;7.970;2023-08-07T06:35:59;13.00;1.00
2409;DHT22;8463;48.094;7.970;2023-08-07T06:38:25;13.00;1.00
2409;DHT22;8463;48.094;7.970;2023-08-07T06:40:51;13.30;1.00
2409;DHT22;8463;48.094;7.970;2023-08-07T06:43:17;13.20;1.00
2409;DHT22;8463;48.094;7.970;2023-08-07T06:45:45;13.50;1.00
2409;DHT22;8463;48.094;7.970;2023-08-07T06:48:11;13.70;1.00
2409;DHT22;8463;48.094;7.970;2023-08-07T06:50:37;13.80;1.00
2409;DHT22;8463;48.094;7.970;2023-08-07T06:53:03;14.00;1.00
2409;DHT22;8463;48.094;7.970;2023-08-07T06:55:28;14.10;1.00
2409;DHT22;8463;48.094;7.970;2023-08-07T06:57:54;14.20;1.00
2409;DHT22;8463;48.094;7.970;2023-08-07T07:00:20;16.20;1.00
2409;DHT22;8463;48.094;7.970;2023-08-07T07:02:45;14.30;1.00
2409;DHT22;8463;48.094;7.970;2023-08-07T07:05:13;14.10;1.00
2409;DHT22;8463;48.094;7.970;2023-08-07T07:07:39;14.00;1.00
2409;DHT22;8463;48.094;7.970;2023-08-07T07:10:06;13.90;1.00
2409;DHT22;8463;48.094;7.970;2023-08-07T07:12:32;13.90;1.00
2409;DHT22;8463;48.094;7.970;2023-08-07T07:14:58;13.90;1.00
2409;DHT22;8463;48.094;7.970;2023-08-07T07:17:23;13.80;1.00
2409;DHT22;8463;48.094;7.970;2023-08-07T07:19:49;13.70;1.00
2409;DHT22;8463;48.094;7.970;2023-08-07T07:22:14;13.70;1.00
2409;DHT22;8463;48.094;7.970;2023-08-07T07:24:40;13.60;1.00
2409;DHT22;8463;48.094;7.970;2023-08-07T07:27:08;13.60;1.00
2409;DHT22;8463;48.094;7.970;2023-08-07T07:29:33;13.60;1.00
2409;DHT22;8463;48.094;7.970;2023-08-07T07:31:59;13.70;1.00
2409;DHT22;8463;48.094;7.970;2023-08-07T07:34:25;13.70;1.00
2409;DHT22;8463;48.094;7.970;2023-08-07T07:36:50;13.70;1.00
2409;DHT22;8463;48.094;7.970;2023-08-07T07:39:16;13.60;1.00
2409;DHT22;8463;48.094;7.970;2023-08-07T07:41:42;13.40;1.00
2409;DHT22;8463;48.094;7.970;2023-08-07T07:44:08;13.30;1.00
2409;DHT22;8463;48.094;7.970;2023-08-07T07:46:34;13.40;1.00
2409;DHT22;8463;48.094;7.970;2023-08-07T07:48:59;13.40;1.00
2409;DHT22;8463;48.094;7.970;2023-08-07T07:51:26;13.50;1.00
2409;DHT22;8463;48.094;7.970;2023-08-07T07:53:52;13.50;1.00
2409;DHT22;8463;48.094;7.970;2023-08-07T07:56:18;13.50;1.00
2409;DHT22;8463;48.094;7.970;2023-08-07T07:58:43;13.50;1.00
2409;DHT22;8463;48.094;7.970;2023-08-07T08:01:09;13.50;1.00
2409;DHT22;8463;48.094;7.970;2023-08-07T08:03:35;13.50;1.00
2409;DHT22;8463;48.094;7.970;2023-08-07T08:06:01;13.50;1.00
2409;DHT22;8463;48.094;7.970;2023-08-07T08:08:27;13.60;1.00
2409;DHT22;8463;48.094;7.970;2023-08-07T08:10:52;13.60;1.00
2409;DHT22;8463;48.094;7.970;2023-08-07T08:13:18;13.60;1.00
2409;DHT22;8463;48.094;7.970;2023-08-07T08:15:45;13.60;1.00
2409;DHT22;8463;48.094;7.970;2023-08-07T08:18:11;13.60;1.00
2409;DHT22;8463;48.094;7.970;2023-08-07T08:20:38;13.60;1.00
2409;DHT22;8463;48.094;7.970;2023-08-07T08:23:04;13.60;1.00
2409;DHT22;8463;48.094;7.970;2023-08-07T08:25:30;13.70;1.00
2409;DHT22;8463;48.094;7.970;2023-08-07T08:27:56;13.80;1.00
2409;DHT22;8463;48.094;7.970;2023-08-07T08:30:24;13.90;1.00
2409;DHT22;8463;48.094;7.970;2023-08-07T08:32:49;13.90;1.00
2409;DHT22;8463;48.094;7.970;2023-08-07T08:35:15;13.80;1.00
2409;DHT22;8463;48.094;7.970;2023-08-07T08:37:41;13.80;1.00
2409;DHT22;8463;48.094;7.970;2023-08-07T08:40:08;13.80;1.00
2409;DHT22;8463;48.094;7.970;2023-08-07T08:42:39;13.70;1.00
2409;DHT22;8463;48.094;7.970;2023-08-07T08:45:09;13.80;1.00
2409;DHT22;8463;48.094;7.970;2023-08-07T08:47:36;13.90;1.00
2409;DHT22;8463;48.094;7.970;2023-08-07T08:50:08;14.10;1.00
2409;DHT22;8463;48.094;7.970;2023-08-07T08:52:37;14.20;1.00
2409;DHT22;8463;48.094;7.970;2023-08-07T08:55:04;14.30;1.00
2409;DHT22;8463;48.094;7.970;2023-08-07T08:57:30;14.40;1.00
2409;DHT22;8463;48.094;7.970;2023-08-07T08:59:59;14.50;1.00
2409;DHT22;8463;48.094;7.970;2023-08-07T09:02:25;14.50;1.00
2409;DHT22;8463;48.094;7.970;2023-08-07T09:04:51;14.50;1.00
2409;DHT22;8463;48.094;7.970;2023-08-07T09:07:20;14.60;1.00
2409;DHT22;8463;48.094;7.970;2023-08-07T09:09:49;14.80;1.00
2409;DHT22;8463;48.094;7.970;2023-08-07T09:12:25;14.80;1.00
2409;DHT22;8463;48.094;7.970;2023-08-07T09:14:57;14.80;1.00
2409;DHT22;8463;48.094;7.970;2023-08-07T09:17:31;14.90;1.00
2409;DHT22;8463;48.094;7.970;2023-08-07T09:19:59;15.00;1.00
2409;DHT22;8463;48.094;7.970;2023-08-07T09:22:26;15.20;1.00
2409;DHT22;8463;48.094;7.970;2023-08-07T09:24:53;15.50;1.00
2409;DHT22;8463;48.094;7.970;2023-08-07T09:27:20;15.70;1.00
2409;DHT22;8463;48.094;7.970;2023-08-07T09:29:46;15.90;1.00
2409;DHT22;8463;48.094;7.970;2023-08-07T09:32:13;16.10;1.00
2409;DHT22;8463;48.094;7.970;2023-08-07T09:34:42;16.30;1.00
2409;DHT22;8463;48.094;7.970;2023-08-07T09:37:11;16.40;1.00
2409;DHT22;8463;48.094;7.970;2023-08-07T09:39:37;16.20;1.00
2409;DHT22;8463;48.094;7.970;2023-08-07T09:42:13;16.30;1.00
2409;DHT22;8463;48.094;7.970;2023-08-07T09:44:39;16.40;1.00
2409;DHT22;8463;48.094;7.970;2023-08-07T09:47:12;16.50;1.00
2409;DHT22;8463;48.094;7.970;2023-08-07T09:49:42;16.40;1.00
2409;DHT22;8463;48.094;7.970;2023-08-07T09:52:10;16.20;1.00
2409;DHT22;8463;48.094;7.970;2023-08-07T09:54:36;16.10;1.00
2409;DHT22;8463;48.094;7.970;2023-08-07T09:57:04;15.90;1.00
2409;DHT22;8463;48.094;7.970;2023-08-07T09:59:30;15.80;1.00
2409;DHT22;8463;48.094;7.970;2023-08-07T10:01:57;15.80;1.00
2409;DHT22;8463;48.094;7.970;2023-08-07T10:04:22;15.70;1.00
2409;DHT22;8463;48.094;7.970;2023-08-07T10:06:48;15.80;1.00
2409;DHT22;8463;48.094;7.970;2023-08-07T10:09:14;15.70;1.00
2409;DHT22;8463;48.094;7.970;2023-08-07T10:11:41;15.80;1.00
2409;DHT22;8463;48.094;7.970;2023-08-07T10:14:08;15.70;1.00
2409;DHT22;8463;48.094;7.970;2023-08-07T10:16:35;15.70;1.00
2409;DHT22;8463;48.094;7.970;2023-08-07T10:19:13;15.70;1.00
2409;DHT22;8463;48.094;7.970;2023-08-07T10:21:40;15.80;1.00
2409;DHT22;8463;48.094;7.970;2023-08-07T10:24:08;15.70;1.00
2409;DHT22;8463;48.094;7.970;2023-08-07T10:26:35;15.80;1.00
2409;DHT22;8463;48.094;7.970;2023-08-07T10:29:03;15.80;1.00
2409;DHT22;8463;48.094;7.970;2023-08-07T10:31:30;15.70;1.00
2409;DHT22;8463;48.094;7.970;2023-08-07T10:33:57;15.60;1.00
2409;DHT22;8463;48.094;7.970;2023-08-07T10:36:23;15.60;1.00
2409;DHT22;8463;48.094;7.970;2023-08-07T10:39:10;15.50;1.00
2409;DHT22;8463;48.094;7.970;2023-08-07T10:41:46;15.50;1.00
2409;DHT22;8463;48.094;7.970;2023-08-07T10:44:24;15.60;1.00
2409;DHT22;8463;48.094;7.970;2023-08-07T10:46:55;15.70;1.00
2409;DHT22;8463;48.094;7.970;2023-08-07T10:52:01;16.20;1.00
2409;DHT22;8463;48.094;7.970;2023-08-07T10:54:27;16.80;1.00
2409;DHT22;8463;48.094;7.970;2023-08-07T10:56:54;17.10;1.00
2409;DHT22;8463;48.094;7.970;2023-08-07T10:59:20;16.90;1.00
2409;DHT22;8463;48.094;7.970;2023-08-07T11:01:51;16.80;1.00
2409;DHT22;8463;48.094;7.970;2023-08-07T11:04:18;16.70;1.00
2409;DHT22;8463;48.094;7.970;2023-08-07T11:06:47;16.80;1.00
2409;DHT22;8463;48.094;7.970;2023-08-07T11:09:13;16.90;1.00
2409;DHT22;8463;48.094;7.970;2023-08-07T11:11:46;16.70;1.00
2409;DHT22;8463;48.094;7.970;2023-08-07T11:14:16;16.70;1.00
2409;DHT22;8463;48.094;7.970;2023-08-07T11:16:43;16.60;1.00
2409;DHT22;8463;48.094;7.970;2023-08-07T11:19:09;16.60;1.00
2409;DHT22;8463;48.094;7.970;2023-08-07T11:21:36;16.50;1.00
2409;DHT22;8463;48.094;7.970;2023-08-07T11:24:04;16.40;1.00
2409;DHT22;8463;48.094;7.970;2023-08-07T11:26:30;16.40;1.00
2409;DHT22;8463;48.094;7.970;2023-08-07T11:28:56;16.40;1.00
2409;DHT22;8463;48.094;7.970;2023-08-07T11:31:22;16.50;1.00
2409;DHT22;8463;48.094;7.970;2023-08-07T11:33:57;16.50;1.00
2409;DHT22;8463;48.094;7.970;2023-08-07T11:36:25;16.70;1.00
2409;DHT22;8463;48.094;7.970;2023-08-07T11:38:51;16.90;1.00
2409;DHT22;8463;48.094;7.970;2023-08-07T11:41:18;17.10;1.00
2409;DHT22;8463;48.094;7.970;2023-08-07T11:43:44;17.20;1.00
2409;DHT22;8463;48.094;7.970;2023-08-07T11:46:11;17.10;1.00
2409;DHT22;8463;48.094;7.970;2023-08-07T11:48:38;16.90;1.00
2409;DHT22;8463;48.094;7.970;2023-08-07T11:51:05;16.90;1.00
2409;DHT22;8463;48.094;7.970;2023-08-07T11:53:33;16.90;1.00
2409;DHT22;8463;48.094;7.970;2023-08-07T11:56:06;16.90;1.00
2409;DHT22;8463;48.094;7.970;2023-08-07T11:58:43;16.80;1.00
2409;DHT22;8463;48.094;7.970;2023-08-07T12:01:13;16.80;1.00
2409;DHT22;8463;48.094;7.970;2023-08-07T12:03:42;16.90;1.00
2409;DHT22;8463;48.094;7.970;2023-08-07T12:06:08;17.10;1.00
2409;DHT22;8463;48.094;7.970;2023-08-07T12:08:40;17.30;1.00
2409;DHT22;8463;48.094;7.970;2023-08-07T12:11:08;17.40;1.00
2409;DHT22;8463;48.094;7.970;2023-08-07T12:13:37;17.80;1.00
2409;DHT22;8463;48.094;7.970;2023-08-07T12:16:03;18.00;1.00
2409;DHT22;8463;48.094;7.970;2023-08-07T12:18:30;18.00;1.00
2409;DHT22;8463;48.094;7.970;2023-08-07T12:21:00;18.10;1.00
2409;DHT22;8463;48.094;7.970;2023-08-07T12:23:27;18.20;1.00
2409;DHT22;8463;48.094;7.970;2023-08-07T12:25:53;18.30;1.00
2409;DHT22;8463;48.094;7.970;2023-08-07T12:28:19;18.60;1.00
2409;DHT22;8463;48.094;7.970;2023-08-07T12:30:49;18.60;1.00
2409;DHT22;8463;48.094;7.970;2023-08-07T12:33:15;18.20;1.00
2409;DHT22;8463;48.094;7.970;2023-08-07T12:35:41;18.50;1.00
2409;DHT22;8463;48.094;7.970;2023-08-07T12:38:07;19.10;1.00
2409;DHT22;8463;48.094;7.970;2023-08-07T12:40:33;19.00;1.00
2409;DHT22;8463;48.094;7.970;2023-08-07T12:43:02;19.20;1.00
2409;DHT22;8463;48.094;7.970;2023-08-07T12:45:30;19.20;1.00
2409;DHT22;8463;48.094;7.970;2023-08-07T12:47:55;19.10;1.00
2409;DHT22;8463;48.094;7.970;2023-08-07T12:50:21;19.40;1.00
2409;DHT22;8463;48.094;7.970;2023-08-07T12:52:47;19.30;1.00
2409;DHT22;8463;48.094;7.970;2023-08-07T12:55:15;18.90;1.00
2409;DHT22;8463;48.094;7.970;2023-08-07T12:57:44;18.90;1.00
2409;DHT22;8463;48.094;7.970;2023-08-07T13:00:11;19.30;1.00
2409;DHT22;8463;48.094;7.970;2023-08-07T13:02:41;19.40;1.00
2409;DHT22;8463;48.094;7.970;2023-08-07T13:05:07;19.10;1.00
2409;DHT22;8463;48.094;7.970;2023-08-07T13:07:36;18.80;1.00
2409;DHT22;8463;48.094;7.970;2023-08-07T13:10:04;18.50;1.00
2409;DHT22;8463;48.094;7.970;2023-08-07T13:12:30;18.50;1.00
2409;DHT22;8463;48.094;7.970;2023-08-07T13:14:59;18.50;1.00
2409;DHT22;8463;48.094;7.970;2023-08-07T13:17:25;18.40;1.00
2409;DHT22;8463;48.094;7.970;2023-08-07T13:19:51;18.20;1.00
2409;DHT22;8463;48.094;7.970;2023-08-07T13:22:16;18.20;1.00
2409;DHT22;8463;48.094;7.970;2023-08-07T13:24:42;18.30;1.00
2409;DHT22;8463;48.094;7.970;2023-08-07T13:27:08;18.40;1.00
2409;DHT22;8463;48.094;7.970;2023-08-07T13:29:34;18.70;1.00
2409;DHT22;8463;48.094;7.970;2023-08-07T13:32:00;19.00;1.00
2409;DHT22;8463;48.094;7.970;2023-08-07T13:34:25;19.00;1.00
2409;DHT22;8463;48.094;7.970;2023-08-07T13:36:51;19.20;1.00
2409;DHT22;8463;48.094;7.970;2023-08-07T13:39:17;19.30;1.00
2409;DHT22;8463;48.094;7.970;2023-08-07T13:41:42;19.40;1.00
2409;DHT22;8463;48.094;7.970;2023-08-07T13:44:08;19.70;1.00
2409;DHT22;8463;48.094;7.970;2023-08-07T13:46:33;19.50;1.00
2409;DHT22;8463;48.094;7.970;2023-08-07T13:48:59;19.40;1.00
2409;DHT22;8463;48.094;7.970;2023-08-07T13:51:25;19.20;1.00
2409;DHT22;8463;48.094;7.970;2023-08-07T13:53:51;19.10;1.00
2409;DHT22;8463;48.094;7.970;2023-08-07T13:56:18;18.90;1.00
2409;DHT22;8463;48.094;7.970;2023-08-07T13:58:43;18.50;1.00
2409;DHT22;8463;48.094;7.970;2023-08-07T14:01:09;17.80;1.00
2409;DHT22;8463;48.094;7.970;2023-08-07T14:03:35;16.90;1.00
2409;DHT22;8463;48.094;7.970;2023-08-07T14:06:01;16.40;1.00
2409;DHT22;8463;48.094;7.970;2023-08-07T14:08:26;16.00;1.00
2409;DHT22;8463;48.094;7.970;2023-08-07T14:10:53;16.00;1.00
2409;DHT22;8463;48.094;7.970;2023-08-07T14:13:18;16.20;1.00
2409;DHT22;8463;48.094;7.970;2023-08-07T14:15:44;16.70;1.00
2409;DHT22;8463;48.094;7.970;2023-08-07T14:18:10;17.10;1.00
2409;DHT22;8463;48.094;7.970;2023-08-07T14:20:42;17.60;1.00
2409;DHT22;8463;48.094;7.970;2023-08-07T14:23:10;18.00;1.00
2409;DHT22;8463;48.094;7.970;2023-08-07T14:25:36;18.20;1.00
2409;DHT22;8463;48.094;7.970;2023-08-07T14:28:03;18.30;1.00
2409;DHT22;8463;48.094;7.970;2023-08-07T14:30:29;18.00;1.00
2409;DHT22;8463;48.094;7.970;2023-08-07T14:32:54;18.40;1.00
2409;DHT22;8463;48.094;7.970;2023-08-07T14:35:20;18.50;1.00
2409;DHT22;8463;48.094;7.970;2023-08-07T14:37:45;18.90;1.00
2409;DHT22;8463;48.094;7.970;2023-08-07T14:40:13;19.10;1.00
2409;DHT22;8463;48.094;7.970;2023-08-07T14:42:39;19.20;1.00
2409;DHT22;8463;48.094;7.970;2023-08-07T14:45:05;19.60;1.00
2409;DHT22;8463;48.094;7.970;2023-08-07T14:47:31;19.50;1.00
2409;DHT22;8463;48.094;7.970;2023-08-07T14:49:57;19.30;1.00
2409;DHT22;8463;48.094;7.970;2023-08-07T14:52:22;19.30;1.00
2409;DHT22;8463;48.094;7.970;2023-08-07T14:54:48;19.40;1.00
2409;DHT22;8463;48.094;7.970;2023-08-07T14:57:13;19.50;1.00
2409;DHT22;8463;48.094;7.970;2023-08-07T14:59:39;19.70;1.00
2409;DHT22;8463;48.094;7.970;2023-08-07T15:02:05;19.80;1.00
2409;DHT22;8463;48.094;7.970;2023-08-07T15:04:31;19.80;1.00
2409;DHT22;8463;48.094;7.970;2023-08-07T15:06:57;20.00;1.00
2409;DHT22;8463;48.094;7.970;2023-08-07T15:09:23;19.80;1.00
2409;DHT22;8463;48.094;7.970;2023-08-07T15:11:48;19.70;1.00
2409;DHT22;8463;48.094;7.970;2023-08-07T15:14:14;19.50;1.00
2409;DHT22;8463;48.094;7.970;2023-08-07T15:16:41;19.30;1.00
2409;DHT22;8463;48.094;7.970;2023-08-07T15:19:07;19.10;1.00
2409;DHT22;8463;48.094;7.970;2023-08-07T15:21:32;19.00;1.00
2409;DHT22;8463;48.094;7.970;2023-08-07T15:23:58;18.90;1.00
2409;DHT22;8463;48.094;7.970;2023-08-07T15:26:24;18.80;1.00
2409;DHT22;8463;48.094;7.970;2023-08-07T15:28:49;18.70;1.00
2409;DHT22;8463;48.094;7.970;2023-08-07T15:31:15;18.60;1.00
2409;DHT22;8463;48.094;7.970;2023-08-07T15:33:41;18.60;1.00
2409;DHT22;8463;48.094;7.970;2023-08-07T15:36:10;18.60;1.00
2409;DHT22;8463;48.094;7.970;2023-08-07T15:38:35;18.70;1.00
2409;DHT22;8463;48.094;7.970;2023-08-07T15:41:03;18.80;1.00
2409;DHT22;8463;48.094;7.970;2023-08-07T15:43:29;18.90;1.00
2409;DHT22;8463;48.094;7.970;2023-08-07T15:45:55;19.00;1.00
2409;DHT22;8463;48.094;7.970;2023-08-07T15:48:21;18.90;1.00
2409;DHT22;8463;48.094;7.970;2023-08-07T15:50:47;18.80;1.00
2409;DHT22;8463;48.094;7.970;2023-08-07T15:53:12;18.70;1.00
2409;DHT22;8463;48.094;7.970;2023-08-07T15:55:40;18.30;1.00
2409;DHT22;8463;48.094;7.970;2023-08-07T15:58:06;18.00;1.00
2409;DHT22;8463;48.094;7.970;2023-08-07T16:00:33;17.80;1.00
2409;DHT22;8463;48.094;7.970;2023-08-07T16:03:04;17.80;1.00
2409;DHT22;8463;48.094;7.970;2023-08-07T16:05:35;17.90;1.00
2409;DHT22;8463;48.094;7.970;2023-08-07T16:08:01;18.10;1.00
2409;DHT22;8463;48.094;7.970;2023-08-07T16:10:27;18.20;1.00
2409;DHT22;8463;48.094;7.970;2023-08-07T16:12:54;18.20;1.00
2409;DHT22;8463;48.094;7.970;2023-08-07T16:15:21;18.20;1.00
2409;DHT22;8463;48.094;7.970;2023-08-07T16:17:46;18.00;1.00
2409;DHT22;8463;48.094;7.970;2023-08-07T16:20:12;17.90;1.00
2409;DHT22;8463;48.094;7.970;2023-08-07T16:22:38;17.80;1.00
2409;DHT22;8463;48.094;7.970;2023-08-07T16:25:05;17.80;1.00